sensor_id;sensor_type;location;lat;lon;timestamp;P1;durP1;ratioP1;P2;durP2;ratioP2
13872;SDS011;7006;51.494;11.964;2023-11-19T00:00:25;11.50;;;7.17;;
13872;SDS011;7006;51.494;11.964;2023-11-19T00:02:53;9.40;;;5.80;;
13872;SDS011;7006;51.494;11.964;2023-11-19T00:05:21;9.80;;;6.13;;
13872;SDS011;7006;51.494;11.964;2023-11-19T00:07:50;10.30;;;6.20;;
13872;SDS011;7006;51.494;11.964;2023-11-19T00:10:18;9.83;;;5.43;;
13872;SDS011;7006;51.494;11.964;2023-11-19T00:12:50;7.07;;;5.50;;
13872;SDS011;7006;51.494;11.964;2023-11-19T00:15:18;5.03;;;3.57;;
13872;SDS011;7006;51.494;11.964;2023-11-19T00:17:47;6.27;;;4.70;;
13872;SDS011;7006;51.494;11.964;2023-11-19T00:20:16;7.73;;;4.83;;
13872;SDS011;7006;51.494;11.964;2023-11-19T00:22:44;4.63;;;2.80;;
13872;SDS011;7006;51.494;11.964;2023-11-19T00:25:13;6.10;;;4.63;;
13872;SDS011;7006;51.494;11.964;2023-11-19T00:27:41;7.43;;;4.80;;
13872;SDS011;7006;51.494;11.964;2023-11-19T00:30:13;6.50;;;4.63;;
13872;SDS011;7006;51.494;11.964;2023-11-19T00:32:42;6.70;;;4.03;;
13872;SDS011;7006;51.494;11.964;2023-11-19T00:35:10;9.83;;;4.40;;
13872;SDS011;7006;51.494;11.964;2023-11-19T00:37:39;7.50;;;4.80;;
13872;SDS011;7006;51.494;11.964;2023-11-19T00:40:08;7.13;;;4.93;;
13872;SDS011;7006;51.494;11.964;2023-11-19T00:42:36;6.70;;;3.90;;
13872;SDS011;7006;51.494;11.964;2023-11-19T00:45:05;6.00;;;3.57;;
13872;SDS011;7006;51.494;11.964;2023-11-19T00:47:37;7.97;;;5.40;;
13872;SDS011;7006;51.494;11.964;2023-11-19T00:50:06;7.17;;;4.70;;
13872;SDS011;7006;51.494;11.964;2023-11-19T00:52:35;5.07;;;4.33;;
13872;SDS011;7006;51.494;11.964;2023-11-19T00:55:04;8.03;;;5.30;;
13872;SDS011;7006;51.494;11.964;2023-11-19T00:57:32;9.20;;;6.30;;
13872;SDS011;7006;51.494;11.964;2023-11-19T01:00:01;8.17;;;6.30;;
13872;SDS011;7006;51.494;11.964;2023-11-19T01:02:36;8.73;;;5.60;;
13872;SDS011;7006;51.494;11.964;2023-11-19T01:05:07;8.20;;;5.80;;
13872;SDS011;7006;51.494;11.964;2023-11-19T01:07:39;6.50;;;4.70;;
13872;SDS011;7006;51.494;11.964;2023-11-19T01:10:08;7.93;;;5.73;;
13872;SDS011;7006;51.494;11.964;2023-11-19T01:12:36;8.97;;;6.53;;
13872;SDS011;7006;51.494;11.964;2023-11-19T01:15:05;8.40;;;6.10;;
13872;SDS011;7006;51.494;11.964;2023-11-19T01:17:33;9.80;;;6.67;;
13872;SDS011;7006;51.494;11.964;2023-11-19T01:20:05;9.30;;;6.13;;
13872;SDS011;7006;51.494;11.964;2023-11-19T01:22:37;9.03;;;6.30;;
13872;SDS011;7006;51.494;11.964;2023-11-19T01:25:06;8.43;;;5.90;;
13872;SDS011;7006;51.494;11.964;2023-11-19T01:27:34;9.63;;;6.50;;
13872;SDS011;7006;51.494;11.964;2023-11-19T01:30:03;9.63;;;6.97;;
13872;SDS011;7006;51.494;11.964;2023-11-19T01:32:34;7.50;;;4.50;;
13872;SDS011;7006;51.494;11.964;2023-11-19T01:35:05;6.90;;;5.13;;
13872;SDS011;7006;51.494;11.964;2023-11-19T01:37:34;8.03;;;5.63;;
13872;SDS011;7006;51.494;11.964;2023-11-19T01:40:02;7.53;;;5.43;;
13872;SDS011;7006;51.494;11.964;2023-11-19T01:42:35;8.43;;;5.63;;
13872;SDS011;7006;51.494;11.964;2023-11-19T01:45:06;6.47;;;5.37;;
13872;SDS011;7006;51.494;11.964;2023-11-19T01:47:35;9.83;;;5.63;;
13872;SDS011;7006;51.494;11.964;2023-11-19T01:50:06;5.83;;;3.90;;
13872;SDS011;7006;51.494;11.964;2023-11-19T01:52:35;7.27;;;5.10;;
13872;SDS011;7006;51.494;11.964;2023-11-19T01:55:04;7.60;;;4.77;;
13872;SDS011;7006;51.494;11.964;2023-11-19T01:57:32;7.83;;;5.43;;
13872;SDS011;7006;51.494;11.964;2023-11-19T02:00:03;6.07;;;4.70;;
13872;SDS011;7006;51.494;11.964;2023-11-19T02:02:32;6.83;;;5.33;;
13872;SDS011;7006;51.494;11.964;2023-11-19T02:05:00;7.00;;;5.07;;
13872;SDS011;7006;51.494;11.964;2023-11-19T02:07:31;7.03;;;5.03;;
13872;SDS011;7006;51.494;11.964;2023-11-19T02:09:59;5.70;;;4.73;;
13872;SDS011;7006;51.494;11.964;2023-11-19T02:12:30;8.07;;;4.90;;
13872;SDS011;7006;51.494;11.964;2023-11-19T02:14:59;7.10;;;5.37;;
13872;SDS011;7006;51.494;11.964;2023-11-19T02:17:27;8.70;;;5.60;;
13872;SDS011;7006;51.494;11.964;2023-11-19T02:19:56;6.50;;;5.40;;
13872;SDS011;7006;51.494;11.964;2023-11-19T02:22:24;6.97;;;5.23;;
13872;SDS011;7006;51.494;11.964;2023-11-19T02:24:59;7.13;;;5.00;;
13872;SDS011;7006;51.494;11.964;2023-11-19T02:27:30;6.30;;;4.30;;
13872;SDS011;7006;51.494;11.964;2023-11-19T02:30:02;5.30;;;4.10;;
13872;SDS011;7006;51.494;11.964;2023-11-19T02:32:33;5.07;;;3.77;;
13872;SDS011;7006;51.494;11.964;2023-11-19T02:35:06;5.93;;;3.80;;
13872;SDS011;7006;51.494;11.964;2023-11-19T02:37:36;6.30;;;4.20;;
13872;SDS011;7006;51.494;11.964;2023-11-19T02:40:05;4.47;;;2.93;;
13872;SDS011;7006;51.494;11.964;2023-11-19T02:42:34;4.87;;;3.90;;
13872;SDS011;7006;51.494;11.964;2023-11-19T02:45:05;5.53;;;3.17;;
13872;SDS011;7006;51.494;11.964;2023-11-19T02:47:35;5.00;;;3.43;;
13872;SDS011;7006;51.494;11.964;2023-11-19T02:50:04;6.60;;;3.40;;
13872;SDS011;7006;51.494;11.964;2023-11-19T02:52:39;6.20;;;3.60;;
13872;SDS011;7006;51.494;11.964;2023-11-19T02:55:07;4.40;;;3.20;;
13872;SDS011;7006;51.494;11.964;2023-11-19T02:57:37;4.10;;;3.30;;
13872;SDS011;7006;51.494;11.964;2023-11-19T03:00:14;3.73;;;2.97;;
13872;SDS011;7006;51.494;11.964;2023-11-19T03:02:42;5.73;;;2.73;;
13872;SDS011;7006;51.494;11.964;2023-11-19T03:05:13;5.47;;;3.53;;
13872;SDS011;7006;51.494;11.964;2023-11-19T03:07:41;3.50;;;2.60;;
13872;SDS011;7006;51.494;11.964;2023-11-19T03:10:10;4.30;;;2.70;;
13872;SDS011;7006;51.494;11.964;2023-11-19T03:12:40;4.47;;;3.00;;
13872;SDS011;7006;51.494;11.964;2023-11-19T03:15:09;3.17;;;2.40;;
13872;SDS011;7006;51.494;11.964;2023-11-19T03:17:40;4.67;;;2.57;;
13872;SDS011;7006;51.494;11.964;2023-11-19T03:20:09;3.70;;;2.70;;
13872;SDS011;7006;51.494;11.964;2023-11-19T03:22:40;7.43;;;2.83;;
13872;SDS011;7006;51.494;11.964;2023-11-19T03:25:09;3.23;;;2.30;;
13872;SDS011;7006;51.494;11.964;2023-11-19T03:27:38;4.93;;;2.67;;
13872;SDS011;7006;51.494;11.964;2023-11-19T03:30:07;3.30;;;2.13;;
13872;SDS011;7006;51.494;11.964;2023-11-19T03:32:36;3.37;;;2.40;;
13872;SDS011;7006;51.494;11.964;2023-11-19T03:35:07;3.30;;;2.47;;
13872;SDS011;7006;51.494;11.964;2023-11-19T03:37:37;3.10;;;1.80;;
13872;SDS011;7006;51.494;11.964;2023-11-19T03:40:05;3.27;;;1.93;;
13872;SDS011;7006;51.494;11.964;2023-11-19T03:42:34;2.80;;;1.80;;
13872;SDS011;7006;51.494;11.964;2023-11-19T03:45:02;3.23;;;2.20;;
13872;SDS011;7006;51.494;11.964;2023-11-19T03:47:32;3.00;;;1.70;;
13872;SDS011;7006;51.494;11.964;2023-11-19T03:50:00;3.90;;;2.30;;
13872;SDS011;7006;51.494;11.964;2023-11-19T03:52:32;2.90;;;1.50;;
13872;SDS011;7006;51.494;11.964;2023-11-19T03:55:00;2.60;;;1.70;;
13872;SDS011;7006;51.494;11.964;2023-11-19T03:57:28;2.30;;;1.50;;
13872;SDS011;7006;51.494;11.964;2023-11-19T03:59:56;3.00;;;1.90;;
13872;SDS011;7006;51.494;11.964;2023-11-19T04:02:25;2.50;;;1.50;;
13872;SDS011;7006;51.494;11.964;2023-11-19T04:04:55;2.37;;;1.40;;
13872;SDS011;7006;51.494;11.964;2023-11-19T04:07:24;2.60;;;1.50;;
13872;SDS011;7006;51.494;11.964;2023-11-19T04:09:54;5.00;;;1.80;;
13872;SDS011;7006;51.494;11.964;2023-11-19T04:12:22;2.60;;;1.50;;
13872;SDS011;7006;51.494;11.964;2023-11-19T04:14:51;1.87;;;1.17;;
13872;SDS011;7006;51.494;11.964;2023-11-19T04:17:19;2.50;;;1.60;;
13872;SDS011;7006;51.494;11.964;2023-11-19T04:19:48;2.20;;;1.33;;
13872;SDS011;7006;51.494;11.964;2023-11-19T04:22:16;3.30;;;1.30;;
13872;SDS011;7006;51.494;11.964;2023-11-19T04:24:44;1.93;;;1.30;;
13872;SDS011;7006;51.494;11.964;2023-11-19T04:27:15;2.03;;;1.00;;
13872;SDS011;7006;51.494;11.964;2023-11-19T04:29:43;2.87;;;1.20;;
13872;SDS011;7006;51.494;11.964;2023-11-19T04:32:12;2.00;;;1.33;;
13872;SDS011;7006;51.494;11.964;2023-11-19T04:34:40;2.20;;;1.20;;
13872;SDS011;7006;51.494;11.964;2023-11-19T04:37:08;2.83;;;1.60;;
13872;SDS011;7006;51.494;11.964;2023-11-19T04:39:36;2.53;;;1.43;;
13872;SDS011;7006;51.494;11.964;2023-11-19T04:42:05;2.50;;;1.30;;
13872;SDS011;7006;51.494;11.964;2023-11-19T04:44:36;2.37;;;1.40;;
13872;SDS011;7006;51.494;11.964;2023-11-19T04:47:04;2.50;;;1.50;;
13872;SDS011;7006;51.494;11.964;2023-11-19T04:49:32;4.57;;;1.40;;
13872;SDS011;7006;51.494;11.964;2023-11-19T04:52:00;2.87;;;1.20;;
13872;SDS011;7006;51.494;11.964;2023-11-19T04:54:29;2.23;;;1.27;;
13872;SDS011;7006;51.494;11.964;2023-11-19T04:56:57;2.63;;;1.13;;
13872;SDS011;7006;51.494;11.964;2023-11-19T04:59:26;1.70;;;0.90;;
13872;SDS011;7006;51.494;11.964;2023-11-19T05:01:56;1.83;;;1.03;;
13872;SDS011;7006;51.494;11.964;2023-11-19T05:04:25;2.20;;;1.20;;
13872;SDS011;7006;51.494;11.964;2023-11-19T05:06:53;1.70;;;0.97;;
13872;SDS011;7006;51.494;11.964;2023-11-19T05:09:21;1.80;;;1.17;;
13872;SDS011;7006;51.494;11.964;2023-11-19T05:11:49;1.60;;;1.00;;
13872;SDS011;7006;51.494;11.964;2023-11-19T05:14:17;1.60;;;0.97;;
13872;SDS011;7006;51.494;11.964;2023-11-19T05:16:46;1.57;;;0.93;;
13872;SDS011;7006;51.494;11.964;2023-11-19T05:19:17;1.70;;;0.90;;
13872;SDS011;7006;51.494;11.964;2023-11-19T05:21:45;1.30;;;0.90;;
13872;SDS011;7006;51.494;11.964;2023-11-19T05:24:14;1.50;;;0.80;;
13872;SDS011;7006;51.494;11.964;2023-11-19T05:26:42;1.50;;;1.00;;
13872;SDS011;7006;51.494;11.964;2023-11-19T05:29:10;1.80;;;0.93;;
13872;SDS011;7006;51.494;11.964;2023-11-19T05:31:39;1.70;;;1.00;;
13872;SDS011;7006;51.494;11.964;2023-11-19T05:34:07;1.77;;;0.80;;
13872;SDS011;7006;51.494;11.964;2023-11-19T05:36:37;2.10;;;1.63;;
13872;SDS011;7006;51.494;11.964;2023-11-19T05:39:06;1.40;;;0.80;;
13872;SDS011;7006;51.494;11.964;2023-11-19T05:41:34;2.00;;;0.90;;
13872;SDS011;7006;51.494;11.964;2023-11-19T05:44:02;1.70;;;0.83;;
13872;SDS011;7006;51.494;11.964;2023-11-19T05:46:30;2.90;;;0.97;;
13872;SDS011;7006;51.494;11.964;2023-11-19T05:48:58;1.30;;;0.80;;
13872;SDS011;7006;51.494;11.964;2023-11-19T05:51:26;1.50;;;1.07;;
13872;SDS011;7006;51.494;11.964;2023-11-19T05:53:58;2.40;;;0.93;;
13872;SDS011;7006;51.494;11.964;2023-11-19T05:56:27;7.13;;;1.30;;
13872;SDS011;7006;51.494;11.964;2023-11-19T05:58:57;1.80;;;1.00;;
13872;SDS011;7006;51.494;11.964;2023-11-19T06:01:26;1.53;;;0.93;;
13872;SDS011;7006;51.494;11.964;2023-11-19T06:03:54;1.57;;;1.00;;
13872;SDS011;7006;51.494;11.964;2023-11-19T06:06:22;2.30;;;1.07;;
13872;SDS011;7006;51.494;11.964;2023-11-19T06:08:50;2.10;;;0.90;;
13872;SDS011;7006;51.494;11.964;2023-11-19T06:11:21;1.50;;;0.87;;
13872;SDS011;7006;51.494;11.964;2023-11-19T06:13:52;1.60;;;1.00;;
13872;SDS011;7006;51.494;11.964;2023-11-19T06:16:20;1.30;;;0.77;;
13872;SDS011;7006;51.494;11.964;2023-11-19T06:18:48;1.83;;;1.13;;
13872;SDS011;7006;51.494;11.964;2023-11-19T06:21:16;1.80;;;1.20;;
13872;SDS011;7006;51.494;11.964;2023-11-19T06:23:44;1.37;;;0.87;;
13872;SDS011;7006;51.494;11.964;2023-11-19T06:26:14;2.73;;;1.00;;
13872;SDS011;7006;51.494;11.964;2023-11-19T06:28:45;2.13;;;1.30;;
13872;SDS011;7006;51.494;11.964;2023-11-19T06:31:13;1.93;;;1.40;;
13872;SDS011;7006;51.494;11.964;2023-11-19T06:33:41;1.67;;;0.90;;
13872;SDS011;7006;51.494;11.964;2023-11-19T06:36:09;1.60;;;1.00;;
13872;SDS011;7006;51.494;11.964;2023-11-19T06:38:38;2.60;;;0.90;;
13872;SDS011;7006;51.494;11.964;2023-11-19T06:41:07;2.53;;;1.03;;
13872;SDS011;7006;51.494;11.964;2023-11-19T06:43:36;1.90;;;1.50;;
13872;SDS011;7006;51.494;11.964;2023-11-19T06:46:13;2.97;;;1.20;;
13872;SDS011;7006;51.494;11.964;2023-11-19T06:48:42;1.70;;;1.30;;
13872;SDS011;7006;51.494;11.964;2023-11-19T06:51:10;2.30;;;1.60;;
13872;SDS011;7006;51.494;11.964;2023-11-19T06:53:39;2.27;;;1.00;;
13872;SDS011;7006;51.494;11.964;2023-11-19T06:56:17;1.90;;;1.20;;
13872;SDS011;7006;51.494;11.964;2023-11-19T06:58:45;1.70;;;1.20;;
13872;SDS011;7006;51.494;11.964;2023-11-19T07:01:16;2.20;;;1.17;;
13872;SDS011;7006;51.494;11.964;2023-11-19T07:03:44;1.90;;;1.40;;
13872;SDS011;7006;51.494;11.964;2023-11-19T07:06:12;1.80;;;1.10;;
13872;SDS011;7006;51.494;11.964;2023-11-19T07:08:41;2.03;;;1.43;;
13872;SDS011;7006;51.494;11.964;2023-11-19T07:11:10;1.90;;;1.33;;
13872;SDS011;7006;51.494;11.964;2023-11-19T07:13:41;4.20;;;1.30;;
13872;SDS011;7006;51.494;11.964;2023-11-19T07:16:11;1.80;;;1.30;;
13872;SDS011;7006;51.494;11.964;2023-11-19T07:18:41;2.23;;;1.33;;
13872;SDS011;7006;51.494;11.964;2023-11-19T07:21:10;2.10;;;1.20;;
13872;SDS011;7006;51.494;11.964;2023-11-19T07:23:38;2.80;;;1.50;;
13872;SDS011;7006;51.494;11.964;2023-11-19T07:26:06;2.17;;;1.30;;
13872;SDS011;7006;51.494;11.964;2023-11-19T07:28:36;2.40;;;1.60;;
13872;SDS011;7006;51.494;11.964;2023-11-19T07:31:04;1.70;;;1.20;;
13872;SDS011;7006;51.494;11.964;2023-11-19T07:33:33;4.30;;;1.67;;
13872;SDS011;7006;51.494;11.964;2023-11-19T07:36:04;3.60;;;1.87;;
13872;SDS011;7006;51.494;11.964;2023-11-19T07:38:32;3.03;;;2.13;;
13872;SDS011;7006;51.494;11.964;2023-11-19T07:41:00;4.30;;;2.20;;
13872;SDS011;7006;51.494;11.964;2023-11-19T07:43:30;3.70;;;2.40;;
13872;SDS011;7006;51.494;11.964;2023-11-19T07:45:58;3.20;;;2.30;;
13872;SDS011;7006;51.494;11.964;2023-11-19T07:48:27;2.87;;;1.80;;
13872;SDS011;7006;51.494;11.964;2023-11-19T07:50:55;2.90;;;2.13;;
13872;SDS011;7006;51.494;11.964;2023-11-19T07:53:26;4.47;;;2.90;;
13872;SDS011;7006;51.494;11.964;2023-11-19T07:55:54;4.00;;;2.60;;
13872;SDS011;7006;51.494;11.964;2023-11-19T07:58:24;3.20;;;2.40;;
13872;SDS011;7006;51.494;11.964;2023-11-19T08:00:52;3.30;;;2.60;;
13872;SDS011;7006;51.494;11.964;2023-11-19T08:03:21;3.13;;;2.10;;
13872;SDS011;7006;51.494;11.964;2023-11-19T08:05:50;3.30;;;2.30;;
13872;SDS011;7006;51.494;11.964;2023-11-19T08:08:18;3.93;;;2.67;;
13872;SDS011;7006;51.494;11.964;2023-11-19T08:10:49;2.40;;;1.80;;
13872;SDS011;7006;51.494;11.964;2023-11-19T08:13:18;3.60;;;2.23;;
13872;SDS011;7006;51.494;11.964;2023-11-19T08:15:46;4.67;;;2.97;;
13872;SDS011;7006;51.494;11.964;2023-11-19T08:18:14;8.30;;;4.97;;
13872;SDS011;7006;51.494;11.964;2023-11-19T08:20:43;5.93;;;2.57;;
13872;SDS011;7006;51.494;11.964;2023-11-19T08:23:14;5.00;;;2.83;;
13872;SDS011;7006;51.494;11.964;2023-11-19T08:25:42;3.43;;;2.20;;
13872;SDS011;7006;51.494;11.964;2023-11-19T08:28:13;2.40;;;1.80;;
13872;SDS011;7006;51.494;11.964;2023-11-19T08:30:41;2.33;;;1.50;;
13872;SDS011;7006;51.494;11.964;2023-11-19T08:33:09;2.73;;;1.77;;
13872;SDS011;7006;51.494;11.964;2023-11-19T08:35:37;10.33;;;6.23;;
13872;SDS011;7006;51.494;11.964;2023-11-19T08:38:05;10.53;;;6.53;;
13872;SDS011;7006;51.494;11.964;2023-11-19T08:40:34;42.77;;;21.43;;
13872;SDS011;7006;51.494;11.964;2023-11-19T08:43:02;48.40;;;14.63;;
13872;SDS011;7006;51.494;11.964;2023-11-19T08:45:34;83.50;;;26.60;;
13872;SDS011;7006;51.494;11.964;2023-11-19T08:48:02;31.33;;;10.50;;
13872;SDS011;7006;51.494;11.964;2023-11-19T08:50:30;6.37;;;4.50;;
13872;SDS011;7006;51.494;11.964;2023-11-19T08:52:59;3.70;;;2.23;;
13872;SDS011;7006;51.494;11.964;2023-11-19T08:55:27;3.40;;;2.17;;
13872;SDS011;7006;51.494;11.964;2023-11-19T08:57:55;2.93;;;2.37;;
13872;SDS011;7006;51.494;11.964;2023-11-19T09:00:23;5.03;;;2.03;;
13872;SDS011;7006;51.494;11.964;2023-11-19T09:02:54;4.57;;;2.80;;
13872;SDS011;7006;51.494;11.964;2023-11-19T09:05:23;8.00;;;3.63;;
13872;SDS011;7006;51.494;11.964;2023-11-19T09:07:51;19.43;;;10.70;;
13872;SDS011;7006;51.494;11.964;2023-11-19T09:10:19;7.13;;;5.07;;
13872;SDS011;7006;51.494;11.964;2023-11-19T09:12:48;11.37;;;8.60;;
13872;SDS011;7006;51.494;11.964;2023-11-19T09:15:16;39.47;;;24.13;;
13872;SDS011;7006;51.494;11.964;2023-11-19T09:17:44;9.73;;;4.80;;
13872;SDS011;7006;51.494;11.964;2023-11-19T09:20:15;31.37;;;20.60;;
13872;SDS011;7006;51.494;11.964;2023-11-19T09:22:43;7.50;;;5.90;;
13872;SDS011;7006;51.494;11.964;2023-11-19T09:25:11;12.70;;;6.17;;
13872;SDS011;7006;51.494;11.964;2023-11-19T09:27:41;22.53;;;13.23;;
13872;SDS011;7006;51.494;11.964;2023-11-19T09:30:10;14.83;;;9.97;;
13872;SDS011;7006;51.494;11.964;2023-11-19T09:32:38;10.23;;;6.87;;
13872;SDS011;7006;51.494;11.964;2023-11-19T09:35:07;6.73;;;4.73;;
13872;SDS011;7006;51.494;11.964;2023-11-19T09:37:41;5.20;;;3.80;;
13872;SDS011;7006;51.494;11.964;2023-11-19T09:40:09;5.70;;;4.07;;
13872;SDS011;7006;51.494;11.964;2023-11-19T09:42:39;6.83;;;3.20;;
13872;SDS011;7006;51.494;11.964;2023-11-19T09:45:12;4.90;;;3.37;;
13872;SDS011;7006;51.494;11.964;2023-11-19T09:47:42;4.50;;;3.73;;
13872;SDS011;7006;51.494;11.964;2023-11-19T09:50:12;4.60;;;3.00;;
13872;SDS011;7006;51.494;11.964;2023-11-19T09:52:44;5.93;;;2.20;;
13872;SDS011;7006;51.494;11.964;2023-11-19T09:55:13;7.70;;;3.07;;
13872;SDS011;7006;51.494;11.964;2023-11-19T09:57:41;6.70;;;4.23;;
13872;SDS011;7006;51.494;11.964;2023-11-19T10:00:10;5.47;;;3.57;;
13872;SDS011;7006;51.494;11.964;2023-11-19T10:02:40;6.07;;;2.57;;
13872;SDS011;7006;51.494;11.964;2023-11-19T10:05:11;5.40;;;3.03;;
13872;SDS011;7006;51.494;11.964;2023-11-19T10:07:40;6.07;;;3.83;;
13872;SDS011;7006;51.494;11.964;2023-11-19T10:10:12;6.50;;;3.80;;
13872;SDS011;7006;51.494;11.964;2023-11-19T10:12:43;8.73;;;4.40;;
13872;SDS011;7006;51.494;11.964;2023-11-19T10:15:14;7.30;;;3.10;;
13872;SDS011;7006;51.494;11.964;2023-11-19T10:17:45;5.07;;;2.33;;
13872;SDS011;7006;51.494;11.964;2023-11-19T10:20:13;4.40;;;2.93;;
13872;SDS011;7006;51.494;11.964;2023-11-19T10:22:41;5.93;;;3.40;;
13872;SDS011;7006;51.494;11.964;2023-11-19T10:25:23;13.27;;;9.70;;
13872;SDS011;7006;51.494;11.964;2023-11-19T10:27:52;11.00;;;9.87;;
13872;SDS011;7006;51.494;11.964;2023-11-19T10:30:21;9.63;;;8.47;;
13872;SDS011;7006;51.494;11.964;2023-11-19T10:35:33;9.20;;;5.80;;
13872;SDS011;7006;51.494;11.964;2023-11-19T10:38:02;6.83;;;4.87;;
13872;SDS011;7006;51.494;11.964;2023-11-19T10:40:43;10.80;;;6.40;;
13872;SDS011;7006;51.494;11.964;2023-11-19T10:43:12;9.00;;;5.53;;
13872;SDS011;7006;51.494;11.964;2023-11-19T10:45:40;7.40;;;3.77;;
13872;SDS011;7006;51.494;11.964;2023-11-19T10:48:08;12.27;;;4.00;;
13872;SDS011;7006;51.494;11.964;2023-11-19T10:50:38;6.10;;;3.40;;
13872;SDS011;7006;51.494;11.964;2023-11-19T10:53:08;5.13;;;3.40;;
13872;SDS011;7006;51.494;11.964;2023-11-19T10:55:38;10.23;;;5.80;;
13872;SDS011;7006;51.494;11.964;2023-11-19T10:58:10;6.37;;;4.20;;
13872;SDS011;7006;51.494;11.964;2023-11-19T11:00:39;5.47;;;4.00;;
13872;SDS011;7006;51.494;11.964;2023-11-19T11:03:11;9.90;;;4.10;;
13872;SDS011;7006;51.494;11.964;2023-11-19T11:05:39;8.47;;;5.83;;
13872;SDS011;7006;51.494;11.964;2023-11-19T11:08:09;5.20;;;3.07;;
13872;SDS011;7006;51.494;11.964;2023-11-19T11:10:39;9.17;;;5.60;;
13872;SDS011;7006;51.494;11.964;2023-11-19T11:13:10;10.77;;;6.03;;
13872;SDS011;7006;51.494;11.964;2023-11-19T11:15:38;9.90;;;6.17;;
13872;SDS011;7006;51.494;11.964;2023-11-19T11:18:08;12.03;;;8.17;;
13872;SDS011;7006;51.494;11.964;2023-11-19T11:20:36;17.57;;;11.10;;
13872;SDS011;7006;51.494;11.964;2023-11-19T11:23:16;9.07;;;4.60;;
13872;SDS011;7006;51.494;11.964;2023-11-19T11:25:51;14.03;;;8.20;;
13872;SDS011;7006;51.494;11.964;2023-11-19T11:28:26;15.30;;;8.90;;
13872;SDS011;7006;51.494;11.964;2023-11-19T11:31:04;7.93;;;4.20;;
13872;SDS011;7006;51.494;11.964;2023-11-19T11:33:41;14.53;;;5.40;;
13872;SDS011;7006;51.494;11.964;2023-11-19T11:36:13;10.73;;;3.50;;
13872;SDS011;7006;51.494;11.964;2023-11-19T11:38:47;10.37;;;6.00;;
13872;SDS011;7006;51.494;11.964;2023-11-19T11:41:16;9.40;;;5.13;;
13872;SDS011;7006;51.494;11.964;2023-11-19T11:43:49;8.97;;;4.00;;
13872;SDS011;7006;51.494;11.964;2023-11-19T11:49:01;14.20;;;6.17;;
13872;SDS011;7006;51.494;11.964;2023-11-19T11:54:25;9.10;;;3.07;;
13872;SDS011;7006;51.494;11.964;2023-11-19T11:57:07;13.53;;;8.70;;
13872;SDS011;7006;51.494;11.964;2023-11-19T11:59:50;11.57;;;3.90;;
13872;SDS011;7006;51.494;11.964;2023-11-19T12:02:19;8.53;;;4.40;;
13872;SDS011;7006;51.494;11.964;2023-11-19T12:04:48;7.20;;;3.03;;
13872;SDS011;7006;51.494;11.964;2023-11-19T12:07:19;7.70;;;3.40;;
13872;SDS011;7006;51.494;11.964;2023-11-19T12:10:05;11.83;;;4.10;;
13872;SDS011;7006;51.494;11.964;2023-11-19T12:12:33;8.90;;;3.20;;
13872;SDS011;7006;51.494;11.964;2023-11-19T12:15:08;10.60;;;3.30;;
13872;SDS011;7006;51.494;11.964;2023-11-19T12:17:43;10.13;;;3.53;;
13872;SDS011;7006;51.494;11.964;2023-11-19T12:20:14;10.20;;;3.00;;
13872;SDS011;7006;51.494;11.964;2023-11-19T12:22:43;8.50;;;3.27;;
13872;SDS011;7006;51.494;11.964;2023-11-19T12:25:12;12.00;;;3.57;;
13872;SDS011;7006;51.494;11.964;2023-11-19T12:27:41;9.23;;;2.80;;
13872;SDS011;7006;51.494;11.964;2023-11-19T12:30:14;10.80;;;3.10;;
13872;SDS011;7006;51.494;11.964;2023-11-19T12:32:45;9.20;;;2.77;;
13872;SDS011;7006;51.494;11.964;2023-11-19T12:35:14;7.83;;;2.80;;
13872;SDS011;7006;51.494;11.964;2023-11-19T12:37:45;11.67;;;3.80;;
13872;SDS011;7006;51.494;11.964;2023-11-19T12:40:16;8.63;;;3.13;;
13872;SDS011;7006;51.494;11.964;2023-11-19T12:42:45;13.07;;;3.57;;
13872;SDS011;7006;51.494;11.964;2023-11-19T12:45:19;13.20;;;3.80;;
13872;SDS011;7006;51.494;11.964;2023-11-19T12:47:49;8.73;;;3.93;;
13872;SDS011;7006;51.494;11.964;2023-11-19T12:50:17;8.57;;;3.20;;
13872;SDS011;7006;51.494;11.964;2023-11-19T12:52:54;7.83;;;3.33;;
13872;SDS011;7006;51.494;11.964;2023-11-19T12:55:26;9.40;;;3.50;;
13872;SDS011;7006;51.494;11.964;2023-11-19T12:57:55;8.90;;;3.80;;
13872;SDS011;7006;51.494;11.964;2023-11-19T13:00:27;11.57;;;3.70;;
13872;SDS011;7006;51.494;11.964;2023-11-19T13:02:55;9.70;;;3.53;;
13872;SDS011;7006;51.494;11.964;2023-11-19T13:05:24;10.70;;;2.93;;
13872;SDS011;7006;51.494;11.964;2023-11-19T13:07:59;10.23;;;3.70;;
13872;SDS011;7006;51.494;11.964;2023-11-19T13:10:27;13.13;;;4.47;;
13872;SDS011;7006;51.494;11.964;2023-11-19T13:12:59;11.00;;;4.40;;
13872;SDS011;7006;51.494;11.964;2023-11-19T13:15:30;9.10;;;3.63;;
13872;SDS011;7006;51.494;11.964;2023-11-19T13:17:58;19.00;;;4.70;;
13872;SDS011;7006;51.494;11.964;2023-11-19T13:20:27;8.17;;;3.20;;
13872;SDS011;7006;51.494;11.964;2023-11-19T13:22:57;9.33;;;3.63;;
13872;SDS011;7006;51.494;11.964;2023-11-19T13:25:25;9.73;;;3.40;;
13872;SDS011;7006;51.494;11.964;2023-11-19T13:27:53;14.17;;;3.13;;
13872;SDS011;7006;51.494;11.964;2023-11-19T13:30:22;9.60;;;3.30;;
13872;SDS011;7006;51.494;11.964;2023-11-19T13:32:53;7.00;;;2.80;;
13872;SDS011;7006;51.494;11.964;2023-11-19T13:35:22;10.97;;;3.90;;
13872;SDS011;7006;51.494;11.964;2023-11-19T13:37:52;7.37;;;3.10;;
13872;SDS011;7006;51.494;11.964;2023-11-19T13:40:20;12.70;;;3.43;;
13872;SDS011;7006;51.494;11.964;2023-11-19T13:42:50;7.93;;;3.33;;
13872;SDS011;7006;51.494;11.964;2023-11-19T13:45:18;10.97;;;3.27;;
13872;SDS011;7006;51.494;11.964;2023-11-19T13:47:46;12.63;;;2.83;;
13872;SDS011;7006;51.494;11.964;2023-11-19T13:50:17;9.47;;;3.20;;
13872;SDS011;7006;51.494;11.964;2023-11-19T13:52:45;11.30;;;3.70;;
13872;SDS011;7006;51.494;11.964;2023-11-19T13:55:14;9.60;;;3.20;;
13872;SDS011;7006;51.494;11.964;2023-11-19T13:57:43;9.13;;;2.90;;
13872;SDS011;7006;51.494;11.964;2023-11-19T14:00:12;8.60;;;3.23;;
13872;SDS011;7006;51.494;11.964;2023-11-19T14:02:41;13.20;;;3.47;;
13872;SDS011;7006;51.494;11.964;2023-11-19T14:05:09;10.07;;;2.97;;
13872;SDS011;7006;51.494;11.964;2023-11-19T14:07:41;9.43;;;2.93;;
13872;SDS011;7006;51.494;11.964;2023-11-19T14:10:10;11.07;;;3.03;;
13872;SDS011;7006;51.494;11.964;2023-11-19T14:12:38;10.03;;;2.63;;
13872;SDS011;7006;51.494;11.964;2023-11-19T14:15:07;8.90;;;3.10;;
13872;SDS011;7006;51.494;11.964;2023-11-19T14:17:37;11.83;;;3.37;;
13872;SDS011;7006;51.494;11.964;2023-11-19T14:20:06;13.03;;;4.43;;
13872;SDS011;7006;51.494;11.964;2023-11-19T14:22:41;9.07;;;2.67;;
13872;SDS011;7006;51.494;11.964;2023-11-19T14:25:09;10.10;;;3.30;;
13872;SDS011;7006;51.494;11.964;2023-11-19T14:27:38;12.40;;;3.30;;
13872;SDS011;7006;51.494;11.964;2023-11-19T14:30:07;12.03;;;3.13;;
13872;SDS011;7006;51.494;11.964;2023-11-19T14:32:36;14.50;;;3.80;;
13872;SDS011;7006;51.494;11.964;2023-11-19T14:35:04;9.37;;;2.77;;
13872;SDS011;7006;51.494;11.964;2023-11-19T14:37:33;11.07;;;2.80;;
13872;SDS011;7006;51.494;11.964;2023-11-19T14:40:04;13.43;;;4.33;;
13872;SDS011;7006;51.494;11.964;2023-11-19T14:42:35;8.60;;;2.80;;
13872;SDS011;7006;51.494;11.964;2023-11-19T14:45:04;14.53;;;2.93;;
13872;SDS011;7006;51.494;11.964;2023-11-19T14:47:32;7.00;;;3.17;;
13872;SDS011;7006;51.494;11.964;2023-11-19T14:50:01;6.90;;;2.77;;
13872;SDS011;7006;51.494;11.964;2023-11-19T14:52:29;11.93;;;4.00;;
13872;SDS011;7006;51.494;11.964;2023-11-19T14:54:57;10.40;;;5.50;;
13872;SDS011;7006;51.494;11.964;2023-11-19T14:57:28;12.77;;;3.53;;
13872;SDS011;7006;51.494;11.964;2023-11-19T14:59:56;9.67;;;4.03;;
13872;SDS011;7006;51.494;11.964;2023-11-19T15:02:24;8.30;;;2.83;;
13872;SDS011;7006;51.494;11.964;2023-11-19T15:04:52;10.10;;;3.97;;
13872;SDS011;7006;51.494;11.964;2023-11-19T15:07:21;15.80;;;3.60;;